Time,TemperatureF,DewpointF,PressureIn,WindDirection,WindDirectionDegrees,WindSpeedMPH,WindSpeedGustMPH,Humidity,HourlyPrecipIn,Conditions,Clouds,dailyrainin,SoftwareType,DateUTC
2013-01-13 00:09:00,32.4,26.3,30.03,North,0,0.0,0.0,78,0.00,,---,0.00,VWS V14.01,2013-01-13 08:09:00,
2013-01-13 00:14:00,32.5,26.4,30.02,North,0,0.0,0.0,78,0.00,,---,0.00,VWS V14.01,2013-01-13 08:14:00,
2013-01-13 00:24:00,32.7,26.9,30.02,North,0,0.0,0.0,79,0.00,,---,0.00,VWS V14.01,2013-01-13 08:24:00,
2013-01-13 00:34:00,32.9,27.1,30.02,North,0,0.0,0.0,79,0.00,,---,0.00,VWS V14.01,2013-01-13 08:34:00,
2013-01-13 00:39:00,33.1,27.3,30.02,North,0,0.0,0.0,79,0.00,,---,0.00,VWS V14.01,2013-01-13 08:39:00,
2013-01-13 00:44:00,33.1,27.3,30.02,North,0,0.0,0.0,79,0.00,,---,0.00,VWS V14.01,2013-01-13 08:44:00,
2013-01-13 00:54:00,33.4,27.6,30.02,North,0,0.0,0.0,79,0.00,,---,0.00,VWS V14.01,2013-01-13 08:54:00,
2013-01-13 00:59:00,33.5,27.7,30.02,North,0,0.0,0.0,79,0.00,,---,0.00,VWS V14.01,2013-01-13 08:59:00,
2013-01-13 01:09:00,33.7,27.9,30.02,North,0,0.0,0.0,79,0.00,,---,0.00,VWS V14.01,2013-01-13 09:09:00,
2013-01-13 01:14:00,33.8,28.0,30.02,North,0,0.0,0.0,79,0.00,,---,0.00,VWS V14.01,2013-01-13 09:14:00,
2013-01-13 01:19:00,34.0,28.2,30.02,North,0,0.0,0.0,79,0.00,,---,0.00,VWS V14.01,2013-01-13 09:19:00,
2013-01-13 01:24:00,34.0,28.2,30.02,North,0,0.0,0.0,79,0.00,,---,0.00,VWS V14.01,2013-01-13 09:24:00,
2013-01-13 01:34:00,34.3,28.5,30.03,North,0,0.0,0.0,79,0.00,,---,0.00,VWS V14.01,2013-01-13 09:34:00,
2013-01-13 01:44:00,34.6,28.8,30.03,North,0,0.0,0.0,79,0.00,,---,0.00,VWS V14.01,2013-01-13 09:44:00,
2013-01-13 01:54:00,34.9,28.8,30.03,North,0,0.0,0.0,78,0.00,,---,0.00,VWS V14.01,2013-01-13 09:54:00,
2013-01-13 01:59:00,35.0,28.9,30.04,North,0,0.0,0.0,78,0.00,,---,0.00,VWS V14.01,2013-01-13 09:59:00,
2013-01-13 02:04:00,35.2,29.0,30.04,North,0,0.0,0.0,78,0.00,,---,0.00,VWS V14.01,2013-01-13 10:04:00,
2013-01-13 02:09:00,35.3,29.1,30.04,North,0,0.0,0.0,78,0.00,,---,0.00,VWS V14.01,2013-01-13 10:09:00,
2013-01-13 02:19:00,35.3,29.1,30.04,North,0,0.0,0.0,78,0.00,,---,0.00,VWS V14.01,2013-01-13 10:19:00,
2013-01-13 02:24:00,35.3,28.8,30.04,North,0,0.0,0.0,77,0.00,,---,0.00,VWS V14.01,2013-01-13 10:24:00,
2013-01-13 02:29:00,35.3,28.8,30.04,North,0,0.0,0.0,77,0.00,,---,0.00,VWS V14.01,2013-01-13 10:29:00,
2013-01-13 02:34:00,35.2,28.7,30.04,North,0,0.0,0.0,77,0.00,,---,0.00,VWS V14.01,2013-01-13 10:34:00,
2013-01-13 02:39:00,35.0,28.5,30.04,North,0,0.0,0.0,77,0.00,,---,0.00,VWS V14.01,2013-01-13 10:39:00,
2013-01-13 02:44:00,35.0,28.5,30.04,North,0,0.0,0.0,77,0.00,,---,0.00,VWS V14.01,2013-01-13 10:44:00,
2013-01-13 02:54:00,34.6,27.8,30.04,North,0,0.0,0.0,76,0.00,,---,0.00,VWS V14.01,2013-01-13 10:54:00,
2013-01-13 02:59:00,34.4,27.6,30.04,North,0,0.0,0.0,76,0.00,,---,0.00,VWS V14.01,2013-01-13 10:59:00,
2013-01-13 03:09:00,34.0,27.2,30.04,North,0,0.0,0.0,76,0.00,,---,0.00,VWS V14.01,2013-01-13 11:09:00,
2013-01-13 03:14:00,33.7,27.0,30.04,North,0,0.0,0.0,76,0.00,,---,0.00,VWS V14.01,2013-01-13 11:14:00,
2013-01-13 03:19:00,33.5,26.8,30.04,North,0,0.0,0.0,76,0.00,,---,0.00,VWS V14.01,2013-01-13 11:19:00,
2013-01-13 03:29:00,33.1,26.4,30.04,North,0,0.0,0.0,76,0.00,,---,0.00,VWS V14.01,2013-01-13 11:29:00,
2013-01-13 03:34:00,32.9,26.2,30.04,North,0,0.0,0.0,76,0.00,,---,0.00,VWS V14.01,2013-01-13 11:34:00,
2013-01-13 03:39:00,32.9,26.2,30.04,North,0,0.0,0.0,76,0.00,,---,0.00,VWS V14.01,2013-01-13 11:39:00,
2013-01-13 03:49:00,32.7,26.0,30.04,North,0,0.0,0.0,76,0.00,,---,0.00,VWS V14.01,2013-01-13 11:49:00,
2013-01-13 03:54:00,32.7,26.0,30.04,North,0,0.0,0.0,76,0.00,,---,0.00,VWS V14.01,2013-01-13 11:54:00,
2013-01-13 04:04:00,32.5,25.8,30.04,North,0,0.0,0.0,76,0.00,,---,0.00,VWS V14.01,2013-01-13 12:04:00,
2013-01-13 04:09:00,32.4,25.7,30.04,North,0,0.0,0.0,76,0.00,,---,0.00,VWS V14.01,2013-01-13 12:09:00,
2013-01-13 04:19:00,32.2,25.5,30.04,North,0,0.0,0.0,76,0.00,,---,0.00,VWS V14.01,2013-01-13 12:19:00,
2013-01-13 04:24:00,32.2,25.5,30.04,North,0,0.0,0.0,76,0.00,,---,0.00,VWS V14.01,2013-01-13 12:24:00,
2013-01-13 04:29:00,32.4,25.4,30.04,North,0,0.0,0.0,75,0.00,,---,0.00,VWS V14.01,2013-01-13 12:29:00,
2013-01-13 04:39:00,32.7,25.7,30.04,North,0,0.0,0.0,75,0.00,,---,0.00,VWS V14.01,2013-01-13 12:39:00,
2013-01-13 04:44:00,32.8,25.8,30.04,North,0,0.0,0.0,75,0.00,,---,0.00,VWS V14.01,2013-01-13 12:44:00,
2013-01-13 04:54:00,33.2,25.8,30.04,North,0,0.0,0.0,74,0.00,,---,0.00,VWS V14.01,2013-01-13 12:54:00,
2013-01-13 05:04:00,33.4,25.7,30.05,North,0,0.0,0.0,73,0.00,,---,0.00,VWS V14.01,2013-01-13 13:04:00,
2013-01-13 05:09:00,33.4,25.4,30.05,North,0,0.0,0.0,72,0.00,,---,0.00,VWS V14.01,2013-01-13 13:09:00,
2013-01-13 05:14:00,33.4,25.4,30.05,North,0,0.0,0.0,72,0.00,,---,0.00,VWS V14.01,2013-01-13 13:14:00,
2013-01-13 05:19:00,33.4,25.4,30.05,North,0,0.0,0.0,72,0.00,,---,0.00,VWS V14.01,2013-01-13 13:19:00,
2013-01-13 05:24:00,33.2,25.2,30.05,North,0,0.0,0.0,72,0.00,,---,0.00,VWS V14.01,2013-01-13 13:24:00,
2013-01-13 05:29:00,33.2,25.2,30.05,North,0,0.0,0.0,72,0.00,,---,0.00,VWS V14.01,2013-01-13 13:29:00,
2013-01-13 05:34:00,33.2,25.2,30.05,North,0,0.0,0.0,72,0.00,,---,0.00,VWS V14.01,2013-01-13 13:34:00,
2013-01-13 05:44:00,33.1,24.7,30.06,North,0,0.0,0.0,71,0.00,,---,0.00,VWS V14.01,2013-01-13 13:44:00,
2013-01-13 05:54:00,33.2,24.8,30.06,North,0,0.0,0.0,71,0.00,,---,0.00,VWS V14.01,2013-01-13 13:54:00,
2013-01-13 05:59:00,33.4,25.0,30.06,North,0,0.0,0.0,71,0.00,,---,0.00,VWS V14.01,2013-01-13 13:59:00,
2013-01-13 06:04:00,33.2,24.8,30.06,North,0,0.0,0.0,71,0.00,,---,0.00,VWS V14.01,2013-01-13 14:04:00,
2013-01-13 06:09:00,33.2,24.5,30.06,North,0,0.0,0.0,70,0.00,,---,0.00,VWS V14.01,2013-01-13 14:09:00,
2013-01-13 06:14:00,33.2,24.5,30.06,North,0,0.0,0.0,70,0.00,,---,0.00,VWS V14.01,2013-01-13 14:14:00,
2013-01-13 06:19:00,33.2,24.5,30.06,North,0,0.0,0.0,70,0.00,,---,0.00,VWS V14.01,2013-01-13 14:19:00,
2013-01-13 06:29:00,33.1,24.4,30.07,North,0,0.0,0.0,70,0.00,,---,0.00,VWS V14.01,2013-01-13 14:29:00,
2013-01-13 06:34:00,33.1,24.0,30.07,North,0,0.0,0.0,69,0.00,,---,0.00,VWS V14.01,2013-01-13 14:34:00,
2013-01-13 06:44:00,33.1,24.0,30.07,North,0,0.0,0.0,69,0.00,,---,0.00,VWS V14.01,2013-01-13 14:44:00,
2013-01-13 06:49:00,33.1,24.0,30.07,North,0,0.0,0.0,69,0.00,,---,0.00,VWS V14.01,2013-01-13 14:49:00,
2013-01-13 06:54:00,32.9,23.9,30.07,North,0,0.0,0.0,69,0.00,,---,0.00,VWS V14.01,2013-01-13 14:54:00,
2013-01-13 07:04:00,32.9,23.9,30.08,North,0,0.0,0.0,69,0.00,,---,0.00,VWS V14.01,2013-01-13 15:04:00,
2013-01-13 07:09:00,32.9,23.9,30.08,North,0,0.0,0.0,69,0.00,,---,0.00,VWS V14.01,2013-01-13 15:09:00,
2013-01-13 07:14:00,32.9,23.9,30.08,North,0,0.0,0.0,69,0.00,,---,0.00,VWS V14.01,2013-01-13 15:14:00,
2013-01-13 07:24:00,32.7,23.7,30.08,ENE,65,0.0,0.0,69,0.00,,---,0.00,VWS V14.01,2013-01-13 15:24:00,
2013-01-13 07:29:00,32.5,23.5,30.09,ENE,65,0.0,0.0,69,0.00,,---,0.00,VWS V14.01,2013-01-13 15:29:00,
2013-01-13 07:34:00,32.4,23.4,30.09,ENE,65,0.0,0.0,69,0.00,,---,0.00,VWS V14.01,2013-01-13 15:34:00,
2013-01-13 07:44:00,32.4,23.4,30.09,ENE,65,0.0,0.0,69,0.00,,---,0.00,VWS V14.01,2013-01-13 15:44:00,
2013-01-13 07:54:00,32.5,23.5,30.09,ENE,65,0.0,0.0,69,0.00,,---,0.00,VWS V14.01,2013-01-13 15:54:00,
2013-01-13 07:59:00,32.7,23.7,30.10,ENE,65,0.0,0.0,69,0.00,,---,0.00,VWS V14.01,2013-01-13 15:59:00,
2013-01-13 08:09:00,36.5,26.2,30.10,East,99,0.0,0.0,66,0.00,,---,0.00,VWS V14.01,2013-01-13 16:09:00,
2013-01-13 08:14:00,38.3,25.6,30.11,ESE,116,0.0,0.0,60,0.00,,---,0.00,VWS V14.01,2013-01-13 16:14:00,
2013-01-13 08:19:00,39.3,25.8,30.11,ESE,121,0.0,6.0,58,0.00,,---,0.00,VWS V14.01,2013-01-13 16:19:00,
2013-01-13 08:24:00,40.3,25.4,30.11,SE,141,0.0,7.0,55,0.00,,---,0.00,VWS V14.01,2013-01-13 16:24:00,
2013-01-13 08:34:00,41.2,24.5,30.11,East,88,0.0,7.0,51,0.00,,---,0.00,VWS V14.01,2013-01-13 16:34:00,
2013-01-13 08:44:00,42.8,25.0,30.11,ESE,107,2.0,10.0,49,0.00,,---,0.00,VWS V14.01,2013-01-13 16:44:00,
2013-01-13 08:49:00,43.6,24.7,30.11,ESE,113,0.0,11.0,47,0.00,,---,0.00,VWS V14.01,2013-01-13 16:49:00,
2013-01-13 08:59:00,45.1,24.0,30.10,ESE,112,0.0,5.0,43,0.00,,---,0.00,VWS V14.01,2013-01-13 16:59:00,
2013-01-13 09:04:00,45.7,24.5,30.10,ESE,123,0.0,8.0,43,0.00,,---,0.00,VWS V14.01,2013-01-13 17:04:00,
2013-01-13 09:09:00,45.8,24.0,30.10,SE,140,4.0,5.0,42,0.00,,---,0.00,VWS V14.01,2013-01-13 17:09:00,
2013-01-13 09:19:00,46.0,23.0,30.10,SE,128,2.0,10.0,40,0.00,,---,0.00,VWS V14.01,2013-01-13 17:19:00,
2013-01-13 09:24:00,46.7,23.7,30.10,SE,130,0.0,10.0,40,0.00,,---,0.00,VWS V14.01,2013-01-13 17:24:00,
2013-01-13 09:29:00,46.8,23.8,30.10,ESE,123,1.0,7.0,40,0.00,,---,0.00,VWS V14.01,2013-01-13 17:29:00,
2013-01-13 09:34:00,46.7,23.1,30.10,SSE,147,0.0,8.0,39,0.00,,---,0.00,VWS V14.01,2013-01-13 17:34:00,
2013-01-13 09:39:00,47.0,23.3,30.10,SE,143,2.0,8.0,39,0.00,,---,0.00,VWS V14.01,2013-01-13 17:39:00,
2013-01-13 09:44:00,47.0,23.3,30.11,SE,138,6.0,8.0,39,0.00,,---,0.00,VWS V14.01,2013-01-13 17:44:00,
2013-01-13 09:49:00,47.6,23.9,30.11,SE,124,0.0,12.0,39,0.00,,---,0.00,VWS V14.01,2013-01-13 17:49:00,
2013-01-13 09:59:00,48.3,23.3,30.10,ESE,119,6.0,9.0,37,0.00,,---,0.00,VWS V14.01,2013-01-13 17:59:00,
2013-01-13 10:09:00,48.5,23.4,30.10,ESE,117,6.0,9.0,37,0.00,,---,0.00,VWS V14.01,2013-01-13 18:09:00,
2013-01-13 10:14:00,48.5,23.4,30.10,ESE,121,2.0,12.0,37,0.00,,---,0.00,VWS V14.01,2013-01-13 18:14:00,
2013-01-13 10:19:00,49.5,24.3,30.10,SSE,154,1.0,7.0,37,0.00,,---,0.00,VWS V14.01,2013-01-13 18:19:00,
2013-01-13 10:29:00,50.2,24.3,30.09,SE,134,0.0,7.0,36,0.00,,---,0.00,VWS V14.01,2013-01-13 18:29:00,
2013-01-13 10:39:00,50.7,24.7,30.09,SE,141,4.0,10.0,36,0.00,,---,0.00,VWS V14.01,2013-01-13 18:39:00,
2013-01-13 10:49:00,51.3,24.6,30.07,South,172,7.0,11.0,35,0.00,,---,0.00,VWS V14.01,2013-01-13 18:49:00,
2013-01-13 10:54:00,51.3,23.9,30.07,SE,137,10.0,10.0,34,0.00,,---,0.00,VWS V14.01,2013-01-13 18:54:00,
2013-01-13 10:59:00,51.7,22.8,30.07,SSE,150,8.0,12.0,32,0.00,,---,0.00,VWS V14.01,2013-01-13 18:59:00,
2013-01-13 11:04:00,52.3,24.1,30.07,SE,131,3.0,10.0,33,0.00,,---,0.00,VWS V14.01,2013-01-13 19:04:00,
2013-01-13 11:14:00,53.6,23.7,30.05,SSE,157,0.0,4.0,31,0.00,,---,0.00,VWS V14.01,2013-01-13 19:14:00,
2013-01-13 11:24:00,53.3,21.9,30.05,SE,126,4.0,8.0,29,0.00,,---,0.00,VWS V14.01,2013-01-13 19:24:00,
2013-01-13 11:29:00,53.1,22.5,30.04,SE,128,5.0,7.0,30,0.00,,---,0.00,VWS V14.01,2013-01-13 19:29:00,
2013-01-13 11:34:00,53.2,21.8,30.04,SSE,158,0.0,6.0,29,0.00,,---,0.00,VWS V14.01,2013-01-13 19:34:00,
2013-01-13 11:39:00,52.9,20.7,30.04,SSW,208,0.0,0.0,28,0.00,,---,0.00,VWS V14.01,2013-01-13 19:39:00,
2013-01-13 11:44:00,53.3,22.7,30.03,SSW,208,0.0,7.0,30,0.00,,---,0.00,VWS V14.01,2013-01-13 19:44:00,
2013-01-13 11:49:00,53.9,23.2,30.03,SW,222,0.0,0.0,30,0.00,,---,0.00,VWS V14.01,2013-01-13 19:49:00,
2013-01-13 11:59:00,53.6,22.1,30.01,SE,136,0.0,6.0,29,0.00,,---,0.00,VWS V14.01,2013-01-13 19:59:00,
2013-01-13 12:04:00,53.5,22.0,30.01,SE,136,0.0,0.0,29,0.00,,---,0.00,VWS V14.01,2013-01-13 20:04:00,
2013-01-13 12:14:00,54.5,22.9,30.00,SSE,151,0.0,0.0,29,0.00,,---,0.00,VWS V14.01,2013-01-13 20:14:00,
2013-01-13 12:19:00,55.0,24.2,30.00,SSW,196,0.0,0.0,30,0.00,,---,0.00,VWS V14.01,2013-01-13 20:19:00,
2013-01-13 12:29:00,54.8,24.8,30.00,SSW,192,0.0,0.0,31,0.00,,---,0.00,VWS V14.01,2013-01-13 20:29:00,
2013-01-13 12:34:00,55.3,23.6,30.00,SW,219,0.0,2.0,29,0.00,,---,0.00,VWS V14.01,2013-01-13 20:34:00,
2013-01-13 12:39:00,55.4,24.5,30.00,SW,223,0.0,7.0,30,0.00,,---,0.00,VWS V14.01,2013-01-13 20:39:00,
2013-01-13 12:44:00,55.4,24.5,29.99,South,185,0.0,1.0,30,0.00,,---,0.00,VWS V14.01,2013-01-13 20:44:00,
2013-01-13 12:49:00,55.7,24.0,29.99,SSW,195,0.0,5.0,29,0.00,,---,0.00,VWS V14.01,2013-01-13 20:49:00,
2013-01-13 12:54:00,55.7,24.8,29.99,SSW,199,0.0,2.0,30,0.00,,---,0.00,VWS V14.01,2013-01-13 20:54:00,
2013-01-13 12:59:00,56.0,25.0,29.98,SSE,154,0.0,1.0,30,0.00,,---,0.00,VWS V14.01,2013-01-13 20:59:00,
2013-01-13 13:04:00,57.0,26.7,29.98,SSW,208,0.0,5.0,31,0.00,,---,0.00,VWS V14.01,2013-01-13 21:04:00,
2013-01-13 13:09:00,56.3,25.3,29.98,SW,226,0.0,7.0,30,0.00,,---,0.00,VWS V14.01,2013-01-13 21:09:00,
2013-01-13 13:14:00,56.2,24.4,29.98,WSW,246,0.0,2.0,29,0.00,,---,0.00,VWS V14.01,2013-01-13 21:14:00,
2013-01-13 13:19:00,56.5,25.5,29.98,SSW,199,3.0,7.0,30,0.00,,---,0.00,VWS V14.01,2013-01-13 21:19:00,
2013-01-13 13:24:00,56.3,24.5,29.98,WSW,254,3.0,6.0,29,0.00,,---,0.00,VWS V14.01,2013-01-13 21:24:00,
2013-01-13 13:34:00,56.0,25.0,29.98,West,278,0.0,10.0,30,0.00,,---,0.00,VWS V14.01,2013-01-13 21:34:00,
2013-01-13 13:44:00,56.2,26.0,29.98,NW,305,0.0,5.0,31,0.00,,---,0.00,VWS V14.01,2013-01-13 21:44:00,
2013-01-13 13:49:00,56.2,25.2,29.98,SW,215,2.0,10.0,30,0.00,,---,0.00,VWS V14.01,2013-01-13 21:49:00,
2013-01-13 13:54:00,56.3,26.1,29.98,West,267,7.0,9.0,31,0.00,,---,0.00,VWS V14.01,2013-01-13 21:54:00,
2013-01-13 14:04:00,56.0,25.8,29.98,WSW,250,4.0,11.0,31,0.00,,---,0.00,VWS V14.01,2013-01-13 22:04:00,
2013-01-13 14:14:00,55.3,26.0,29.98,West,260,0.0,8.0,32,0.00,,---,0.00,VWS V14.01,2013-01-13 22:14:00,
2013-01-13 14:19:00,55.1,25.8,29.98,SSW,195,8.0,11.0,32,0.00,,---,0.00,VWS V14.01,2013-01-13 22:19:00,
2013-01-13 14:29:00,55.0,26.5,29.98,SW,233,4.0,12.0,33,0.00,,---,0.00,VWS V14.01,2013-01-13 22:29:00,
2013-01-13 14:39:00,55.1,27.3,29.98,SSW,196,6.0,10.0,34,0.00,,---,0.00,VWS V14.01,2013-01-13 22:39:00,
2013-01-13 14:44:00,55.3,27.4,29.98,SW,226,1.0,12.0,34,0.00,,---,0.00,VWS V14.01,2013-01-13 22:44:00,
2013-01-13 14:54:00,54.7,26.9,29.98,SW,217,0.0,11.0,34,0.00,,---,0.00,VWS V14.01,2013-01-13 22:54:00,
2013-01-13 14:59:00,53.9,26.9,29.98,SSW,212,3.0,8.0,35,0.00,,---,0.00,VWS V14.01,2013-01-13 22:59:00,
2013-01-13 15:04:00,53.9,27.6,29.98,SW,227,7.0,12.0,36,0.00,,---,0.00,VWS V14.01,2013-01-13 23:04:00,
2013-01-13 15:09:00,54.1,27.8,29.98,SW,226,5.0,11.0,36,0.00,,---,0.00,VWS V14.01,2013-01-13 23:09:00,
2013-01-13 15:19:00,54.1,27.1,29.98,SW,216,7.0,8.0,35,0.00,,---,0.00,VWS V14.01,2013-01-13 23:19:00,
2013-01-13 15:24:00,54.5,28.1,29.98,SW,236,1.0,7.0,36,0.00,,---,0.00,VWS V14.01,2013-01-13 23:24:00,
2013-01-13 15:29:00,54.1,27.1,29.98,WSW,251,2.0,11.0,35,0.00,,---,0.00,VWS V14.01,2013-01-13 23:29:00,
2013-01-13 15:34:00,54.4,28.0,29.98,SSW,213,3.0,8.0,36,0.00,,---,0.00,VWS V14.01,2013-01-13 23:34:00,
2013-01-13 15:44:00,53.5,27.2,29.98,SW,224,8.0,8.0,36,0.00,,---,0.00,VWS V14.01,2013-01-13 23:44:00,
2013-01-13 15:49:00,53.1,27.5,29.98,SSW,205,2.0,11.0,37,0.00,,---,0.00,VWS V14.01,2013-01-13 23:49:00,
2013-01-13 15:54:00,52.6,26.4,29.98,WSW,243,8.0,8.0,36,0.00,,---,0.00,VWS V14.01,2013-01-13 23:54:00,
2013-01-13 15:59:00,51.9,27.7,29.98,SW,217,0.0,8.0,39,0.00,,---,0.00,VWS V14.01,2013-01-13 23:59:00,
2013-01-13 16:04:00,51.4,27.3,29.98,WSW,253,0.0,7.0,39,0.00,,---,0.00,VWS V14.01,2013-01-14 00:04:00,
2013-01-13 16:09:00,51.3,27.2,29.98,West,261,0.0,6.0,39,0.00,,---,0.00,VWS V14.01,2013-01-14 00:09:00,
2013-01-13 16:14:00,51.4,27.3,29.99,WSW,246,7.0,10.0,39,0.00,,---,0.00,VWS V14.01,2013-01-14 00:14:00,
2013-01-13 16:19:00,51.1,27.6,29.99,WSW,244,0.0,8.0,40,0.00,,---,0.00,VWS V14.01,2013-01-14 00:19:00,
2013-01-13 16:24:00,51.0,28.1,29.99,WSW,253,4.0,7.0,41,0.00,,---,0.00,VWS V14.01,2013-01-14 00:24:00,
2013-01-13 16:34:00,50.1,28.5,29.98,SSW,200,0.0,10.0,43,0.00,,---,0.00,VWS V14.01,2013-01-14 00:34:00,
2013-01-13 16:39:00,49.6,28.0,29.98,WSW,240,0.0,6.0,43,0.00,,---,0.00,VWS V14.01,2013-01-14 00:39:00,
2013-01-13 16:44:00,49.5,28.5,29.98,WSW,243,0.0,0.0,44,0.00,,---,0.00,VWS V14.01,2013-01-14 00:44:00,
2013-01-13 16:49:00,49.5,28.5,29.98,SW,233,0.0,0.0,44,0.00,,---,0.00,VWS V14.01,2013-01-14 00:49:00,
2013-01-13 16:54:00,49.5,28.5,29.98,SW,233,0.0,0.0,44,0.00,,---,0.00,VWS V14.01,2013-01-14 00:54:00,
2013-01-13 16:59:00,49.2,28.2,29.98,SW,233,0.0,0.0,44,0.00,,---,0.00,VWS V14.01,2013-01-14 00:59:00,
2013-01-13 17:04:00,48.9,28.5,29.98,SW,233,0.0,0.0,45,0.00,,---,0.00,VWS V14.01,2013-01-14 01:04:00,
2013-01-13 17:09:00,48.5,28.7,29.98,WSW,237,0.0,0.0,46,0.00,,---,0.00,VWS V14.01,2013-01-14 01:09:00,
2013-01-13 17:14:00,48.0,28.2,29.97,WSW,248,0.0,0.0,46,0.00,,---,0.00,VWS V14.01,2013-01-14 01:14:00,
2013-01-13 17:24:00,47.1,28.9,29.97,West,265,0.0,0.0,49,0.00,,---,0.00,VWS V14.01,2013-01-14 01:24:00,
2013-01-13 17:34:00,46.5,28.9,29.98,West,268,0.0,2.0,50,0.00,,---,0.00,VWS V14.01,2013-01-14 01:34:00,
2013-01-13 17:39:00,46.2,28.6,29.98,West,268,0.0,0.0,50,0.00,,---,0.00,VWS V14.01,2013-01-14 01:39:00,
2013-01-13 17:44:00,46.1,29.0,29.98,West,270,0.0,0.0,51,0.00,,---,0.00,VWS V14.01,2013-01-14 01:44:00,
2013-01-13 17:49:00,45.5,29.4,29.98,North,359,0.0,0.0,53,0.00,,---,0.00,VWS V14.01,2013-01-14 01:49:00,
2013-01-13 17:59:00,44.3,29.6,29.99,North,359,0.0,0.0,56,0.00,,---,0.00,VWS V14.01,2013-01-14 01:59:00,
2013-01-13 18:04:00,43.9,29.2,29.99,North,359,0.0,0.0,56,0.00,,---,0.00,VWS V14.01,2013-01-14 02:04:00,
2013-01-13 18:14:00,43.2,29.0,29.99,North,359,0.0,0.0,57,0.00,,---,0.00,VWS V14.01,2013-01-14 02:14:00,
2013-01-13 18:19:00,42.8,28.6,29.99,North,359,0.0,0.0,57,0.00,,---,0.00,VWS V14.01,2013-01-14 02:19:00,
2013-01-13 18:24:00,42.3,28.2,29.99,North,359,0.0,0.0,57,0.00,,---,0.00,VWS V14.01,2013-01-14 02:24:00,
2013-01-13 18:29:00,42.1,28.8,30.00,North,359,0.0,0.0,59,0.00,,---,0.00,VWS V14.01,2013-01-14 02:29:00,
2013-01-13 18:39:00,41.2,28.8,30.00,North,4,0.0,0.0,61,0.00,,---,0.00,VWS V14.01,2013-01-14 02:39:00,
2013-01-13 18:44:00,40.9,28.9,30.01,NNE,23,6.0,6.0,62,0.00,,---,0.00,VWS V14.01,2013-01-14 02:44:00,
2013-01-13 18:49:00,40.8,29.2,30.01,NNE,17,6.0,8.0,63,0.00,,---,0.00,VWS V14.01,2013-01-14 02:49:00,
2013-01-13 18:54:00,40.8,29.2,30.01,North,3,6.0,8.0,63,0.00,,---,0.00,VWS V14.01,2013-01-14 02:54:00,
2013-01-13 18:59:00,40.8,29.2,30.01,North,11,3.0,8.0,63,0.00,,---,0.00,VWS V14.01,2013-01-14 02:59:00,
2013-01-13 19:09:00,40.9,29.7,30.01,North,10,0.0,2.0,64,0.00,,---,0.00,VWS V14.01,2013-01-14 03:09:00,
2013-01-13 19:14:00,40.8,29.6,30.01,WSW,253,0.0,0.0,64,0.00,,---,0.00,VWS V14.01,2013-01-14 03:14:00,
2013-01-13 19:19:00,40.6,29.4,30.01,WSW,253,0.0,0.0,64,0.00,,---,0.00,VWS V14.01,2013-01-14 03:19:00,
2013-01-13 19:29:00,40.2,29.0,30.01,WSW,253,0.0,0.0,64,0.00,,---,0.00,VWS V14.01,2013-01-14 03:29:00,
2013-01-13 19:34:00,39.9,28.7,30.01,WSW,253,0.0,0.0,64,0.00,,---,0.00,VWS V14.01,2013-01-14 03:34:00,
2013-01-13 19:39:00,39.6,28.4,30.01,WSW,253,0.0,0.0,64,0.00,,---,0.00,VWS V14.01,2013-01-14 03:39:00,
2013-01-13 19:44:00,39.3,28.2,30.01,WSW,253,0.0,0.0,64,0.00,,---,0.00,VWS V14.01,2013-01-14 03:44:00,
2013-01-13 19:49:00,38.9,28.1,30.01,WSW,253,0.0,0.0,65,0.00,,---,0.00,VWS V14.01,2013-01-14 03:49:00,
2013-01-13 19:59:00,38.3,28.0,30.02,WSW,253,0.0,0.0,66,0.00,,---,0.00,VWS V14.01,2013-01-14 03:59:00,
2013-01-13 20:04:00,37.9,27.9,30.02,WSW,253,0.0,0.0,67,0.00,,---,0.00,VWS V14.01,2013-01-14 04:04:00,
2013-01-13 20:14:00,37.6,28.0,30.01,WSW,253,0.0,0.0,68,0.00,,---,0.00,VWS V14.01,2013-01-14 04:14:00,
2013-01-13 20:19:00,37.6,28.0,30.01,WSW,253,0.0,0.0,68,0.00,,---,0.00,VWS V14.01,2013-01-14 04:19:00,
2013-01-13 20:29:00,37.3,28.1,30.02,WSW,253,0.0,0.0,69,0.00,,---,0.00,VWS V14.01,2013-01-14 04:29:00,
2013-01-13 20:39:00,37.0,27.8,30.02,WSW,253,0.0,0.0,69,0.00,,---,0.00,VWS V14.01,2013-01-14 04:39:00,
2013-01-13 20:44:00,36.8,28.0,30.03,WSW,253,0.0,0.0,70,0.00,,---,0.00,VWS V14.01,2013-01-14 04:44:00,
2013-01-13 20:54:00,36.6,27.8,30.03,WSW,253,0.0,0.0,70,0.00,,---,0.00,VWS V14.01,2013-01-14 04:54:00,
2013-01-13 20:59:00,36.5,27.7,30.03,WSW,253,0.0,0.0,70,0.00,,---,0.00,VWS V14.01,2013-01-14 04:59:00,
2013-01-13 21:04:00,37.0,27.4,30.03,WSW,253,0.0,0.0,68,0.00,,---,0.00,VWS V14.01,2013-01-14 05:04:00,
2013-01-13 21:14:00,39.8,26.7,30.03,WSW,253,0.0,0.0,59,0.00,,---,0.00,VWS V14.01,2013-01-14 05:14:00,
2013-01-13 21:19:00,41.3,25.5,30.03,WSW,253,0.0,0.0,53,0.00,,---,0.00,VWS V14.01,2013-01-14 05:19:00,
2013-01-13 21:29:00,43.5,22.0,30.04,WSW,253,0.0,0.0,42,0.00,,---,0.00,VWS V14.01,2013-01-14 05:29:00,
2013-01-13 21:34:00,44.2,20.8,30.04,WSW,253,0.0,0.0,39,0.00,,---,0.00,VWS V14.01,2013-01-14 05:34:00,
2013-01-13 21:39:00,44.5,19.9,30.04,WSW,253,0.0,0.0,37,0.00,,---,0.00,VWS V14.01,2013-01-14 05:39:00,
2013-01-13 21:49:00,44.6,19.3,30.05,WSW,253,0.0,0.0,36,0.00,,---,0.00,VWS V14.01,2013-01-14 05:49:00,
2013-01-13 21:59:00,44.2,19.0,30.06,WSW,253,0.0,0.0,36,0.00,,---,0.00,VWS V14.01,2013-01-14 05:59:00,
2013-01-13 22:04:00,44.1,18.2,30.06,WSW,253,0.0,0.0,35,0.00,,---,0.00,VWS V14.01,2013-01-14 06:04:00,
2013-01-13 22:09:00,44.1,18.9,30.06,WSW,253,0.0,0.0,36,0.00,,---,0.00,VWS V14.01,2013-01-14 06:09:00,
2013-01-13 22:14:00,43.9,18.0,30.07,WSW,253,0.0,0.0,35,0.00,,---,0.00,VWS V14.01,2013-01-14 06:14:00,
2013-01-13 22:19:00,43.9,18.0,30.07,WSW,253,0.0,0.0,35,0.00,,---,0.00,VWS V14.01,2013-01-14 06:19:00,
2013-01-13 22:24:00,44.1,18.2,30.07,WSW,253,0.0,0.0,35,0.00,,---,0.00,VWS V14.01,2013-01-14 06:24:00,
2013-01-13 22:29:00,43.9,18.0,30.07,WSW,253,0.0,0.0,35,0.00,,---,0.00,VWS V14.01,2013-01-14 06:29:00,
2013-01-13 22:34:00,43.8,18.0,30.07,WSW,253,0.0,0.0,35,0.00,,---,0.00,VWS V14.01,2013-01-14 06:34:00,
2013-01-13 22:44:00,43.8,17.3,30.08,WSW,253,0.0,0.0,34,0.00,,---,0.00,VWS V14.01,2013-01-14 06:44:00,
2013-01-13 22:49:00,43.8,17.3,30.08,WSW,253,0.0,0.0,34,0.00,,---,0.00,VWS V14.01,2013-01-14 06:49:00,
2013-01-13 22:59:00,43.8,16.6,30.08,WSW,253,0.0,0.0,33,0.00,,---,0.00,VWS V14.01,2013-01-14 06:59:00,
2013-01-13 23:04:00,43.6,16.4,30.08,WSW,253,0.0,0.0,33,0.00,,---,0.00,VWS V14.01,2013-01-14 07:04:00,
2013-01-13 23:09:00,43.6,16.4,30.08,WSW,253,0.0,0.0,33,0.00,,---,0.00,VWS V14.01,2013-01-14 07:09:00,
2013-01-13 23:14:00,43.5,16.3,30.09,WSW,253,0.0,0.0,33,0.00,,---,0.00,VWS V14.01,2013-01-14 07:14:00,
2013-01-13 23:19:00,43.2,16.1,30.09,WSW,253,0.0,0.0,33,0.00,,---,0.00,VWS V14.01,2013-01-14 07:19:00,
2013-01-13 23:24:00,43.1,16.0,30.09,WSW,253,0.0,0.0,33,0.00,,---,0.00,VWS V14.01,2013-01-14 07:24:00,
2013-01-13 23:34:00,42.8,16.4,30.09,WSW,253,0.0,0.0,34,0.00,,---,0.00,VWS V14.01,2013-01-14 07:34:00,
2013-01-13 23:39:00,42.5,16.1,30.09,WSW,253,0.0,0.0,34,0.00,,---,0.00,VWS V14.01,2013-01-14 07:39:00,
2013-01-13 23:44:00,42.3,15.3,30.10,WSW,253,0.0,0.0,33,0.00,,---,0.00,VWS V14.01,2013-01-14 07:44:00,
2013-01-13 23:49:00,42.3,15.9,30.10,WSW,253,0.0,0.0,34,0.00,,---,0.00,VWS V14.01,2013-01-14 07:49:00,
2013-01-13 23:54:00,42.5,14.7,30.10,WSW,253,0.0,0.0,32,0.00,,---,0.00,VWS V14.01,2013-01-14 07:54:00,